createdAt,value
2018-07-06T00:00:14.034Z,4.27
2018-07-06T00:02:53.722Z,3.67
2018-07-06T00:05:33.175Z,3.10
2018-07-06T00:08:12.861Z,2.93
2018-07-06T00:10:52.508Z,3.90
2018-07-06T00:13:32.111Z,3.93
2018-07-06T00:16:11.524Z,3.37
2018-07-06T00:18:51.227Z,3.33
2018-07-06T00:21:30.821Z,3.97
2018-07-06T00:24:10.154Z,3.97
2018-07-06T00:26:49.753Z,3.80
2018-07-06T00:29:29.524Z,3.40
2018-07-06T00:32:09.064Z,3.67
2018-07-06T00:34:48.547Z,3.80
2018-07-06T00:37:28.143Z,2.83
2018-07-06T00:40:07.736Z,3.10
2018-07-06T00:42:47.655Z,2.70
2018-07-06T00:45:27.085Z,3.27
2018-07-06T00:48:06.644Z,3.13
2018-07-06T00:50:46.841Z,2.70
2018-07-06T00:53:26.578Z,3.33
2018-07-06T00:56:06.076Z,3.03
2018-07-06T01:01:48.916Z,3.57
2018-07-06T01:04:28.482Z,3.47
2018-07-06T01:07:08.088Z,3.37
2018-07-06T01:09:48.093Z,3.03
2018-07-06T01:12:32.830Z,3.87
2018-07-06T01:15:17.830Z,4.00
2018-07-06T01:17:57.326Z,3.87
2018-07-06T01:20:36.931Z,3.80
2018-07-06T01:23:17.275Z,4.30
2018-07-06T01:25:56.964Z,3.10
2018-07-06T01:28:36.473Z,4.30
2018-07-06T01:31:16.936Z,3.00
2018-07-06T01:33:56.633Z,3.53
2018-07-06T01:36:36.199Z,4.07
2018-07-06T01:39:16.466Z,3.80
2018-07-06T01:41:56.150Z,3.43
2018-07-06T01:44:35.726Z,3.57
2018-07-06T01:47:15.605Z,3.30
2018-07-06T01:49:55.298Z,3.50
2018-07-06T01:52:34.746Z,3.50
2018-07-06T01:55:14.330Z,10.60
2018-07-06T01:57:53.722Z,4.03
2018-07-06T02:00:33.351Z,3.53
2018-07-06T02:03:13.085Z,3.37
2018-07-06T02:05:52.724Z,4.37
2018-07-06T02:08:32.730Z,4.20
2018-07-06T02:11:12.293Z,4.00
2018-07-06T02:13:52.429Z,3.87
2018-07-06T02:16:32.251Z,3.97
2018-07-06T02:19:11.763Z,3.97
2018-07-06T02:21:51.223Z,4.13
2018-07-06T02:24:30.979Z,3.73
2018-07-06T02:27:10.687Z,3.50
2018-07-06T02:29:50.559Z,3.70
2018-07-06T02:32:30.159Z,4.23
2018-07-06T02:35:10.034Z,3.90
2018-07-06T02:37:49.549Z,3.63
2018-07-06T02:40:29.137Z,4.37
2018-07-06T02:43:09.241Z,4.90
2018-07-06T02:45:48.896Z,3.80
2018-07-06T02:48:28.474Z,4.10
2018-07-06T02:51:08.678Z,4.40
2018-07-06T02:53:48.411Z,4.60
2018-07-06T02:56:27.968Z,4.55
2018-07-06T02:59:08.136Z,4.20
2018-07-06T03:01:47.809Z,4.70
2018-07-06T03:04:27.378Z,4.80
2018-07-06T03:07:07.035Z,4.20
2018-07-06T03:09:46.659Z,4.67
2018-07-06T03:12:26.162Z,4.10
2018-07-06T03:15:05.733Z,4.00
2018-07-06T03:17:45.274Z,4.73
2018-07-06T03:20:24.962Z,3.90
2018-07-06T03:23:04.454Z,4.43
2018-07-06T03:25:44.078Z,3.57
2018-07-06T03:28:23.512Z,4.10
2018-07-06T03:31:02.952Z,4.00
2018-07-06T03:33:42.550Z,4.30
2018-07-06T03:36:22.015Z,4.20
2018-07-06T03:39:01.430Z,4.40
2018-07-06T03:41:41.458Z,4.60
2018-07-06T03:44:21.171Z,5.10
2018-07-06T03:47:00.651Z,4.23
2018-07-06T03:49:40.816Z,5.03
2018-07-06T03:52:20.585Z,4.40
2018-07-06T03:55:00.098Z,4.03
2018-07-06T03:57:40.129Z,5.23
2018-07-06T04:00:19.696Z,5.33
2018-07-06T04:02:59.105Z,4.40
2018-07-06T04:05:39.007Z,6.80
2018-07-06T04:08:18.499Z,6.00
2018-07-06T04:10:58.169Z,6.07
2018-07-06T04:13:37.881Z,7.13
2018-07-06T04:16:17.642Z,7.07
2018-07-06T04:19:12.361Z,7.90
2018-07-06T04:21:53.645Z,6.47
2018-07-06T04:24:33.464Z,6.70
2018-07-06T04:27:13.941Z,6.80
2018-07-06T04:29:53.369Z,6.70
2018-07-06T04:32:33.199Z,6.40
2018-07-06T04:35:13.236Z,7.00
2018-07-06T04:37:52.583Z,7.97
2018-07-06T04:40:32.233Z,6.57
2018-07-06T04:43:12.481Z,7.70
2018-07-06T04:45:52.009Z,7.90
2018-07-06T04:48:31.481Z,8.20
2018-07-06T04:51:11.710Z,9.30
2018-07-06T04:53:51.371Z,10.20
2018-07-06T04:56:30.960Z,10.08
2018-07-06T04:59:11.018Z,10.20
2018-07-06T05:01:50.689Z,12.37
2018-07-06T05:04:31.201Z,13.37
2018-07-06T05:07:13.440Z,12.57
2018-07-06T05:09:52.819Z,15.67
2018-07-06T05:12:32.402Z,15.23
2018-07-06T05:15:12.463Z,11.17
2018-07-06T05:17:52.079Z,14.27
2018-07-06T05:20:31.592Z,16.60
2018-07-06T05:23:12.001Z,16.53
2018-07-06T05:25:51.492Z,17.30
2018-07-06T05:28:31.117Z,16.10
2018-07-06T05:31:11.139Z,16.30
2018-07-06T05:33:50.882Z,17.63
2018-07-06T05:36:30.555Z,20.37
2018-07-06T05:39:10.276Z,18.03
2018-07-06T05:41:50.608Z,18.57
2018-07-06T05:44:30.180Z,18.27
2018-07-06T05:47:09.825Z,18.47
2018-07-06T05:49:49.335Z,18.80
2018-07-06T05:52:28.997Z,18.30
2018-07-06T05:55:08.653Z,18.80
2018-07-06T05:57:48.108Z,19.37
2018-07-06T06:00:27.631Z,18.47
2018-07-06T06:03:07.198Z,19.37
2018-07-06T06:05:46.793Z,19.53
2018-07-06T06:08:20.265Z,18.60
2018-07-06T06:10:48.148Z,19.03
2018-07-06T06:13:16.218Z,20.23
2018-07-06T06:15:44.770Z,19.90
2018-07-06T06:18:13.854Z,22.07
2018-07-06T06:20:42.724Z,22.20
2018-07-06T06:23:11.497Z,21.13
2018-07-06T06:25:39.866Z,20.73
2018-07-06T06:28:08.139Z,20.77
2018-07-06T06:30:36.340Z,20.67
2018-07-06T06:33:04.569Z,23.00
2018-07-06T06:35:32.654Z,22.23
2018-07-06T06:38:00.808Z,20.57
2018-07-06T06:40:28.930Z,23.83
2018-07-06T06:42:57.082Z,21.33
2018-07-06T06:45:25.146Z,23.63
2018-07-06T06:47:53.365Z,24.47
2018-07-06T06:50:21.457Z,22.60
2018-07-06T06:52:49.598Z,23.00
2018-07-06T06:55:17.759Z,25.10
2018-07-06T06:57:46.029Z,24.67
2018-07-06T07:00:14.857Z,24.00
2018-07-06T07:02:43.828Z,24.47
2018-07-06T07:05:12.614Z,27.17
2018-07-06T07:07:41.062Z,24.67
2018-07-06T07:10:09.320Z,27.93
2018-07-06T07:12:37.414Z,26.43
2018-07-06T07:15:05.519Z,25.37
2018-07-06T07:17:33.670Z,27.67
2018-07-06T07:20:01.779Z,28.23
2018-07-06T07:22:29.941Z,28.20
2018-07-06T07:24:58.077Z,24.90
2018-07-06T07:27:26.228Z,27.47
2018-07-06T07:29:54.326Z,29.30
2018-07-06T07:32:22.496Z,28.83
2018-07-06T07:34:50.616Z,29.07
2018-07-06T07:37:18.766Z,28.00
2018-07-06T07:39:47.016Z,29.77
2018-07-06T07:42:15.569Z,28.80
2018-07-06T07:44:44.785Z,32.10
2018-07-06T07:47:13.588Z,31.50
2018-07-06T07:49:41.798Z,29.80
2018-07-06T07:52:15.951Z,29.77
2018-07-06T07:54:47.694Z,31.03
2018-07-06T07:57:16.176Z,30.70
2018-07-06T07:59:45.279Z,31.40
2018-07-06T08:02:14.376Z,29.70
2018-07-06T08:04:43.336Z,30.67
2018-07-06T08:07:11.614Z,29.98
2018-07-06T08:09:40.042Z,28.77
2018-07-06T08:12:08.146Z,31.97
2018-07-06T08:14:36.495Z,33.33
2018-07-06T08:17:04.742Z,35.20
2018-07-06T08:19:32.877Z,34.07
2018-07-06T08:22:00.931Z,34.10
2018-07-06T08:24:29.041Z,34.13
2018-07-06T08:26:57.106Z,33.30
2018-07-06T08:29:25.158Z,31.30
2018-07-06T08:31:53.256Z,32.57
2018-07-06T08:34:26.949Z,23.50
2018-07-06T08:37:47.022Z,25.27
2018-07-06T08:40:16.130Z,28.70
2018-07-06T08:42:47.026Z,21.33
2018-07-06T08:45:15.962Z,24.90
2018-07-06T08:47:45.276Z,30.20
2018-07-06T08:50:14.123Z,27.10
2018-07-06T08:52:43.982Z,28.60
2018-07-06T08:55:12.360Z,31.53
2018-07-06T08:57:41.493Z,25.17
2018-07-06T09:00:10.228Z,26.07
2018-07-06T09:02:38.332Z,27.17
2018-07-06T09:05:07.008Z,24.67
2018-07-06T09:07:35.198Z,23.10
2018-07-06T09:10:03.687Z,22.27
2018-07-06T09:12:31.885Z,20.87
2018-07-06T09:15:00.684Z,19.73
2018-07-06T09:17:28.834Z,20.27
2018-07-06T09:19:57.992Z,15.93
2018-07-06T09:22:25.975Z,15.97
2018-07-06T09:24:55.364Z,22.70
2018-07-06T09:27:23.510Z,19.20
2018-07-06T09:29:51.501Z,21.07
2018-07-06T09:32:19.598Z,25.07
2018-07-06T09:34:47.666Z,20.60
2018-07-06T09:37:15.745Z,17.80
2018-07-06T09:39:44.441Z,20.80
2018-07-06T09:42:13.079Z,23.97
2018-07-06T09:44:42.410Z,23.03
2018-07-06T09:47:11.333Z,24.30
2018-07-06T09:49:40.287Z,23.23
2018-07-06T09:52:09.079Z,23.37
2018-07-06T09:54:37.361Z,26.80
2018-07-06T09:57:05.632Z,24.03
2018-07-06T09:59:33.737Z,23.67
2018-07-06T10:02:01.855Z,20.60
2018-07-06T10:04:29.979Z,21.83
2018-07-06T10:06:59.076Z,25.17
2018-07-06T10:09:27.130Z,19.20
2018-07-06T10:11:55.213Z,18.77
2018-07-06T10:14:23.253Z,19.80
2018-07-06T10:16:51.355Z,16.60
2018-07-06T10:19:19.425Z,17.07
2018-07-06T10:21:47.566Z,17.00
2018-07-06T10:24:15.607Z,16.20
2018-07-06T10:26:43.835Z,14.97
2018-07-06T10:29:17.350Z,14.03
2018-07-06T10:31:58.589Z,11.13
2018-07-06T10:34:26.670Z,12.90
2018-07-06T10:36:54.753Z,14.60
2018-07-06T10:39:22.884Z,11.70
2018-07-06T10:41:51.045Z,11.43
2018-07-06T10:44:19.095Z,12.30
2018-07-06T10:46:47.193Z,14.10
2018-07-06T10:49:15.285Z,13.50
2018-07-06T10:51:43.593Z,13.20
2018-07-06T10:54:12.561Z,12.50
2018-07-06T10:56:41.566Z,11.70
2018-07-06T10:59:10.367Z,12.80
2018-07-06T11:01:38.646Z,13.20
2018-07-06T11:04:06.890Z,13.30
2018-07-06T11:06:34.996Z,12.40
2018-07-06T11:09:03.312Z,11.97
2018-07-06T11:11:31.466Z,12.67
2018-07-06T11:13:59.540Z,10.47
2018-07-06T11:16:27.597Z,9.90
2018-07-06T11:18:55.669Z,8.10
2018-07-06T11:21:23.725Z,9.23
2018-07-06T11:23:51.810Z,6.83
2018-07-06T11:26:19.846Z,7.83
2018-07-06T11:28:47.950Z,9.33
2018-07-06T11:31:16.008Z,7.80
2018-07-06T11:33:44.265Z,6.87
2018-07-06T11:36:13.109Z,9.00
2018-07-06T11:38:42.074Z,7.90
2018-07-06T11:41:10.867Z,7.00
2018-07-06T11:43:39.348Z,8.03
2018-07-06T11:46:07.556Z,6.70
2018-07-06T11:48:35.628Z,7.40
2018-07-06T11:51:03.715Z,7.67
2018-07-06T11:53:31.783Z,6.30
2018-07-06T11:55:59.932Z,5.90
2018-07-06T11:58:27.968Z,5.07
2018-07-06T12:00:56.018Z,5.70
2018-07-06T12:03:24.067Z,5.57
2018-07-06T12:05:52.172Z,5.20
2018-07-06T12:08:20.233Z,5.77
2018-07-06T12:10:48.319Z,4.70
2018-07-06T12:13:17.943Z,4.30
2018-07-06T12:15:46.025Z,4.27
2018-07-06T12:18:14.352Z,5.70
2018-07-06T12:20:43.560Z,6.20
2018-07-06T12:23:12.479Z,4.90
2018-07-06T12:25:41.176Z,3.83
2018-07-06T12:28:09.485Z,4.20
2018-07-06T12:30:37.830Z,5.27
2018-07-06T12:33:05.880Z,4.57
2018-07-06T12:35:33.987Z,4.20
2018-07-06T12:38:02.059Z,4.80
2018-07-06T12:40:30.133Z,4.63
2018-07-06T12:42:58.171Z,4.00
2018-07-06T12:45:26.234Z,4.70
2018-07-06T12:47:54.276Z,4.30
2018-07-06T12:50:22.361Z,4.20
2018-07-06T12:52:50.406Z,4.23
2018-07-06T12:55:18.554Z,3.70
2018-07-06T12:57:46.691Z,4.30
2018-07-06T13:00:14.918Z,3.20
2018-07-06T13:02:44.031Z,3.20
2018-07-06T13:05:12.993Z,3.03
2018-07-06T13:07:41.783Z,3.27
2018-07-06T13:10:10.284Z,2.83
2018-07-06T13:12:38.489Z,3.17
2018-07-06T13:15:06.622Z,3.70
2018-07-06T13:17:34.718Z,3.50
2018-07-06T13:20:02.808Z,3.03
2018-07-06T13:22:30.868Z,3.67
2018-07-06T13:24:58.967Z,4.10
2018-07-06T13:27:27.022Z,2.80
2018-07-06T13:29:55.132Z,3.27
2018-07-06T13:32:23.223Z,3.07
2018-07-06T13:34:51.303Z,2.90
2018-07-06T13:37:19.344Z,2.60
2018-07-06T13:39:47.426Z,3.20
2018-07-06T13:42:15.611Z,2.60
2018-07-06T13:44:44.372Z,3.50
2018-07-06T13:47:13.388Z,3.57
2018-07-06T13:49:42.280Z,3.37
2018-07-06T13:52:10.866Z,3.30
2018-07-06T13:54:41.090Z,3.13
2018-07-06T13:57:10.169Z,3.53
2018-07-06T13:59:38.442Z,3.23
2018-07-06T14:02:07.408Z,3.90
2018-07-06T14:04:35.642Z,2.97
2018-07-06T14:07:03.710Z,3.63
2018-07-06T14:09:31.767Z,3.40
2018-07-06T14:11:59.870Z,3.33
2018-07-06T14:14:27.924Z,2.50
2018-07-06T14:16:56.031Z,2.80
2018-07-06T14:19:24.074Z,2.50
2018-07-06T14:21:52.199Z,2.10
2018-07-06T14:24:20.288Z,1.70
2018-07-06T14:26:48.421Z,2.30
2018-07-06T14:29:16.557Z,2.57
2018-07-06T14:31:45.184Z,2.43
2018-07-06T14:34:14.466Z,3.20
2018-07-06T14:36:43.430Z,3.17
2018-07-06T14:39:12.326Z,2.30
2018-07-06T14:41:40.521Z,2.80
2018-07-06T14:44:08.800Z,3.00
2018-07-06T14:46:36.893Z,2.77
2018-07-06T14:49:05.313Z,2.70
2018-07-06T14:51:33.392Z,2.73
2018-07-06T14:54:01.439Z,2.60
2018-07-06T14:56:29.544Z,2.53
2018-07-06T14:58:57.578Z,2.37
2018-07-06T15:01:25.970Z,2.40
2018-07-06T15:03:54.011Z,2.50
2018-07-06T15:06:22.090Z,2.70
2018-07-06T15:08:50.169Z,2.17
2018-07-06T15:11:18.268Z,2.75
2018-07-06T15:13:46.489Z,2.30
2018-07-06T15:16:15.494Z,3.10
2018-07-06T15:18:44.421Z,2.90
2018-07-06T15:21:13.230Z,2.53
2018-07-06T15:23:41.522Z,3.07
2018-07-06T15:26:10.140Z,3.20
2018-07-06T15:28:38.197Z,3.20
2018-07-06T15:31:06.285Z,3.07
2018-07-06T15:33:34.369Z,2.50
2018-07-06T15:36:02.426Z,3.13
2018-07-06T15:38:30.494Z,3.43
2018-07-06T15:40:58.632Z,2.97
2018-07-06T15:43:26.693Z,2.20
2018-07-06T15:45:54.784Z,2.60
2018-07-06T15:48:22.869Z,2.50
2018-07-06T15:50:50.949Z,3.00
2018-07-06T15:53:19.013Z,3.10
2018-07-06T15:55:47.345Z,2.57
2018-07-06T15:58:16.011Z,2.77
2018-07-06T16:00:44.948Z,2.23
2018-07-06T16:03:13.737Z,2.20
2018-07-06T16:05:42.016Z,2.53
2018-07-06T16:08:10.272Z,2.30
2018-07-06T16:10:38.357Z,2.03
2018-07-06T16:13:06.471Z,2.20
2018-07-06T16:15:34.526Z,2.27
2018-07-06T16:18:02.650Z,1.80
2018-07-06T16:20:30.830Z,1.73
2018-07-06T16:22:58.923Z,1.93
2018-07-06T16:25:27.004Z,2.70
2018-07-06T16:27:55.099Z,2.00
2018-07-06T16:30:23.153Z,1.60
2018-07-06T16:32:51.250Z,1.83
2018-07-06T16:35:19.326Z,2.25
2018-07-06T16:37:47.605Z,3.10
2018-07-06T16:40:16.601Z,2.50
2018-07-06T16:42:45.759Z,3.13
2018-07-06T16:45:14.544Z,2.47
2018-07-06T16:47:42.718Z,2.50
2018-07-06T16:50:10.926Z,2.17
2018-07-06T16:52:38.980Z,1.80
2018-07-06T16:55:07.059Z,2.60
2018-07-06T16:57:35.135Z,2.00
2018-07-06T17:00:03.158Z,1.80
2018-07-06T17:02:32.341Z,2.27
2018-07-06T17:05:00.388Z,2.50
2018-07-06T17:07:28.441Z,2.00
2018-07-06T17:09:56.526Z,2.30
2018-07-06T17:12:24.610Z,2.77
2018-07-06T17:14:52.689Z,2.27
2018-07-06T17:17:20.741Z,2.00
2018-07-06T17:19:48.832Z,2.00
2018-07-06T17:22:17.394Z,2.30
2018-07-06T17:24:46.490Z,2.17
2018-07-06T17:27:15.451Z,2.07
2018-07-06T17:29:44.136Z,2.10
2018-07-06T17:32:12.341Z,2.40
2018-07-06T17:34:40.540Z,2.40
2018-07-06T17:37:08.676Z,2.20
2018-07-06T17:39:36.747Z,2.20
2018-07-06T17:42:04.797Z,2.20
2018-07-06T17:44:32.870Z,2.47
2018-07-06T17:47:00.930Z,2.80
2018-07-06T17:49:28.992Z,2.53
2018-07-06T17:51:57.024Z,2.20
2018-07-06T17:54:25.129Z,3.30
2018-07-06T17:56:53.507Z,3.13
2018-07-06T17:59:21.669Z,2.40
2018-07-06T18:01:49.764Z,2.70
2018-07-06T18:04:18.391Z,2.53
2018-07-06T18:06:47.385Z,2.90
2018-07-06T18:09:16.530Z,2.70
2018-07-06T18:11:45.467Z,2.20
2018-07-06T18:14:14.163Z,2.40
2018-07-06T18:16:42.359Z,2.70
2018-07-06T18:19:10.497Z,2.50
2018-07-06T18:21:38.670Z,2.57
2018-07-06T18:24:06.797Z,2.20
2018-07-06T18:26:34.847Z,2.53
2018-07-06T18:29:03.019Z,3.20
2018-07-06T18:31:31.198Z,3.10
2018-07-06T18:33:59.626Z,3.80
2018-07-06T18:36:27.702Z,3.63
2018-07-06T18:38:55.785Z,3.90
2018-07-06T18:41:23.855Z,3.70
2018-07-06T18:43:51.989Z,4.10
2018-07-06T18:46:20.020Z,3.90
2018-07-06T18:48:48.521Z,3.73
2018-07-06T18:51:17.430Z,4.60
2018-07-06T18:53:46.356Z,4.70
2018-07-06T18:56:15.055Z,2.80
2018-07-06T18:58:43.281Z,3.40
2018-07-06T19:01:11.507Z,3.43
2018-07-06T19:03:39.576Z,3.07
2018-07-06T19:06:07.653Z,3.87
2018-07-06T19:08:35.872Z,3.67
2018-07-06T19:11:03.994Z,3.70
2018-07-06T19:13:32.033Z,3.90
2018-07-06T19:16:00.139Z,3.30
2018-07-06T19:18:28.262Z,3.67
2018-07-06T19:20:56.357Z,3.97
2018-07-06T19:23:24.406Z,3.50
2018-07-06T19:25:52.539Z,3.70
2018-07-06T19:28:20.591Z,3.30
2018-07-06T19:30:48.968Z,3.43
2018-07-06T19:33:17.702Z,3.27
2018-07-06T19:35:46.568Z,3.90
2018-07-06T19:38:15.050Z,4.57
2018-07-06T19:40:43.281Z,3.73
2018-07-06T19:43:11.347Z,3.57
2018-07-06T19:45:39.444Z,4.00
2018-07-06T19:48:07.491Z,3.03
2018-07-06T19:50:35.565Z,4.17
2018-07-06T19:53:03.676Z,4.33
2018-07-06T19:55:31.769Z,5.43
2018-07-06T19:57:59.816Z,3.80
2018-07-06T20:00:27.886Z,3.70
2018-07-06T20:02:56.007Z,3.87
2018-07-06T20:05:24.103Z,3.90
2018-07-06T20:07:52.234Z,4.17
2018-07-06T20:10:20.706Z,3.70
2018-07-06T20:12:49.522Z,4.20
2018-07-06T20:15:18.613Z,3.70
2018-07-06T20:17:47.476Z,3.97
2018-07-06T20:20:16.067Z,3.93
2018-07-06T20:22:44.306Z,3.80
2018-07-06T20:25:12.393Z,4.00
2018-07-06T20:27:40.437Z,3.40
2018-07-06T20:30:08.485Z,3.90
2018-07-06T20:32:36.571Z,3.80
2018-07-06T20:35:04.620Z,4.43
2018-07-06T20:37:32.945Z,4.03
2018-07-06T20:40:00.998Z,3.90
2018-07-06T20:42:29.064Z,4.57
2018-07-06T20:44:57.132Z,5.80
2018-07-06T20:47:25.230Z,5.33
2018-07-06T20:49:53.298Z,5.60
2018-07-06T20:52:21.522Z,9.30
2018-07-06T20:54:50.206Z,6.20
2018-07-06T20:57:19.742Z,4.70
2018-07-06T20:59:48.606Z,4.93
2018-07-06T21:02:17.390Z,4.40
2018-07-06T21:04:45.591Z,4.23
2018-07-06T21:07:13.789Z,4.10
2018-07-06T21:09:41.848Z,4.20
2018-07-06T21:12:09.941Z,4.40
2018-07-06T21:14:37.981Z,4.80
2018-07-06T21:17:06.093Z,5.90
2018-07-06T21:19:34.375Z,6.27
2018-07-06T21:22:02.584Z,4.90
2018-07-06T21:24:30.649Z,4.83
2018-07-06T21:26:58.782Z,5.47
2018-07-06T21:29:26.838Z,6.00
2018-07-06T21:31:54.973Z,6.10
2018-07-06T21:34:23.023Z,7.90
2018-07-06T21:36:51.583Z,7.63
2018-07-06T21:39:20.646Z,7.47
2018-07-06T21:41:49.622Z,7.10
2018-07-06T21:44:18.198Z,6.93
2018-07-06T21:46:46.461Z,6.20
2018-07-06T21:49:14.566Z,6.10
2018-07-06T21:51:42.668Z,6.27
2018-07-06T21:54:10.729Z,7.00
2018-07-06T21:56:38.853Z,7.90
2018-07-06T21:59:06.909Z,8.17
2018-07-06T22:01:35.037Z,6.87
2018-07-06T22:04:03.097Z,5.63
2018-07-06T22:06:31.239Z,6.27
2018-07-06T22:08:59.321Z,6.60
2018-07-06T22:11:27.410Z,6.53
2018-07-06T22:13:55.614Z,6.20
2018-07-06T22:16:23.819Z,17.23
2018-07-06T22:18:53.439Z,13.50
2018-07-06T22:21:22.333Z,8.70
2018-07-06T22:23:51.391Z,7.30
2018-07-06T22:26:20.439Z,7.03
2018-07-06T22:28:48.611Z,5.83
2018-07-06T22:31:16.814Z,6.20
2018-07-06T22:33:44.909Z,6.73
2018-07-06T22:36:12.946Z,6.47
2018-07-06T22:38:41.022Z,6.73
2018-07-06T22:41:09.094Z,6.83
2018-07-06T22:43:37.153Z,7.13
2018-07-06T22:46:05.344Z,7.03
2018-07-06T22:48:33.471Z,6.67
2018-07-06T22:51:01.549Z,7.47
2018-07-06T22:53:29.647Z,6.57
2018-07-06T22:55:57.722Z,6.53
2018-07-06T22:58:25.885Z,6.77
2018-07-06T23:00:54.220Z,6.87
2018-07-06T23:03:23.122Z,6.53
2018-07-06T23:05:52.085Z,7.20
2018-07-06T23:08:20.735Z,7.30
2018-07-06T23:10:48.941Z,6.43
2018-07-06T23:13:17.153Z,6.83
2018-07-06T23:15:45.197Z,6.40
2018-07-06T23:18:13.304Z,6.30
2018-07-06T23:20:41.354Z,6.93
2018-07-06T23:23:13.291Z,7.03
2018-07-06T23:25:49.037Z,6.90
2018-07-06T23:28:17.492Z,6.97
2018-07-06T23:30:45.574Z,7.03
2018-07-06T23:33:13.974Z,6.17
2018-07-06T23:35:42.017Z,6.33
2018-07-06T23:38:10.123Z,7.10
2018-07-06T23:40:38.193Z,7.67
2018-07-06T23:43:06.268Z,7.83
2018-07-06T23:45:34.406Z,7.80
2018-07-06T23:48:02.527Z,8.00
2018-07-06T23:50:30.594Z,7.10
2018-07-06T23:52:58.658Z,7.67
2018-07-06T23:55:26.765Z,7.67
2018-07-06T23:57:55.302Z,7.17
